sensor_id;sensor_type;location;lat;lon;timestamp;P1;durP1;ratioP1;P2;durP2;ratioP2
9392;SDS011;4736;52.508;13.422;2022-09-02T00:01:51;2.43;;;2.30;;
9392;SDS011;4736;52.508;13.422;2022-09-02T00:04:55;2.13;;;2.03;;
9392;SDS011;4736;52.508;13.422;2022-09-02T00:07:57;2.27;;;2.27;;
9392;SDS011;4736;52.508;13.422;2022-09-02T00:11:01;2.00;;;2.00;;
9392;SDS011;4736;52.508;13.422;2022-09-02T00:14:09;2.07;;;2.07;;
9392;SDS011;4736;52.508;13.422;2022-09-02T00:17:13;3.60;;;2.30;;
9392;SDS011;4736;52.508;13.422;2022-09-02T00:20:16;2.50;;;2.30;;
9392;SDS011;4736;52.508;13.422;2022-09-02T00:23:20;2.40;;;2.20;;
9392;SDS011;4736;52.508;13.422;2022-09-02T00:26:27;3.70;;;2.40;;
9392;SDS011;4736;52.508;13.422;2022-09-02T00:29:31;3.20;;;2.20;;
9392;SDS011;4736;52.508;13.422;2022-09-02T00:32:34;2.50;;;2.40;;
9392;SDS011;4736;52.508;13.422;2022-09-02T00:35:37;2.37;;;2.37;;
9392;SDS011;4736;52.508;13.422;2022-09-02T00:38:40;2.40;;;2.30;;
9392;SDS011;4736;52.508;13.422;2022-09-02T00:41:44;2.50;;;2.40;;
9392;SDS011;4736;52.508;13.422;2022-09-02T00:44:48;2.20;;;2.20;;
9392;SDS011;4736;52.508;13.422;2022-09-02T00:47:51;3.40;;;2.30;;
9392;SDS011;4736;52.508;13.422;2022-09-02T00:50:54;2.43;;;2.30;;
9392;SDS011;4736;52.508;13.422;2022-09-02T00:53:57;2.23;;;2.17;;
9392;SDS011;4736;52.508;13.422;2022-09-02T00:57:00;2.13;;;2.13;;
9392;SDS011;4736;52.508;13.422;2022-09-02T01:00:10;2.53;;;2.37;;
9392;SDS011;4736;52.508;13.422;2022-09-02T01:03:18;2.60;;;2.40;;
9392;SDS011;4736;52.508;13.422;2022-09-02T01:06:24;2.57;;;2.47;;
9392;SDS011;4736;52.508;13.422;2022-09-02T01:09:30;2.57;;;2.37;;
9392;SDS011;4736;52.508;13.422;2022-09-02T01:12:35;2.50;;;2.40;;
9392;SDS011;4736;52.508;13.422;2022-09-02T01:15:55;2.53;;;2.43;;
9392;SDS011;4736;52.508;13.422;2022-09-02T01:19:05;2.20;;;2.20;;
9392;SDS011;4736;52.508;13.422;2022-09-02T01:22:17;2.67;;;2.03;;
9392;SDS011;4736;52.508;13.422;2022-09-02T01:25:23;2.37;;;2.37;;
9392;SDS011;4736;52.508;13.422;2022-09-02T01:28:37;2.40;;;2.40;;
9392;SDS011;4736;52.508;13.422;2022-09-02T01:31:44;2.00;;;2.00;;
9392;SDS011;4736;52.508;13.422;2022-09-02T01:34:47;2.17;;;2.17;;
9392;SDS011;4736;52.508;13.422;2022-09-02T01:37:52;2.20;;;2.10;;
9392;SDS011;4736;52.508;13.422;2022-09-02T01:40:56;2.20;;;2.20;;
9392;SDS011;4736;52.508;13.422;2022-09-02T01:44:07;2.43;;;2.40;;
9392;SDS011;4736;52.508;13.422;2022-09-02T01:47:11;2.53;;;2.20;;
9392;SDS011;4736;52.508;13.422;2022-09-02T01:50:16;2.17;;;2.10;;
9392;SDS011;4736;52.508;13.422;2022-09-02T01:53:21;2.17;;;2.17;;
9392;SDS011;4736;52.508;13.422;2022-09-02T01:56:24;2.30;;;2.30;;
9392;SDS011;4736;52.508;13.422;2022-09-02T01:59:27;5.40;;;2.43;;
9392;SDS011;4736;52.508;13.422;2022-09-02T02:02:30;2.33;;;2.23;;
9392;SDS011;4736;52.508;13.422;2022-09-02T02:05:33;3.70;;;2.63;;
9392;SDS011;4736;52.508;13.422;2022-09-02T02:08:38;2.40;;;2.40;;
9392;SDS011;4736;52.508;13.422;2022-09-02T02:11:41;2.20;;;2.20;;
9392;SDS011;4736;52.508;13.422;2022-09-02T02:14:52;2.60;;;2.43;;
9392;SDS011;4736;52.508;13.422;2022-09-02T02:17:56;2.57;;;2.47;;
9392;SDS011;4736;52.508;13.422;2022-09-02T02:20:59;2.63;;;2.63;;
9392;SDS011;4736;52.508;13.422;2022-09-02T02:24:03;2.50;;;2.40;;
9392;SDS011;4736;52.508;13.422;2022-09-02T02:27:08;2.20;;;2.20;;
9392;SDS011;4736;52.508;13.422;2022-09-02T02:30:14;2.33;;;2.20;;
9392;SDS011;4736;52.508;13.422;2022-09-02T02:33:18;2.70;;;2.67;;
9392;SDS011;4736;52.508;13.422;2022-09-02T02:36:26;2.93;;;2.70;;
9392;SDS011;4736;52.508;13.422;2022-09-02T02:39:30;2.23;;;2.23;;
9392;SDS011;4736;52.508;13.422;2022-09-02T02:42:35;2.50;;;2.40;;
9392;SDS011;4736;52.508;13.422;2022-09-02T02:45:38;2.47;;;2.37;;
9392;SDS011;4736;52.508;13.422;2022-09-02T02:48:41;2.20;;;2.20;;
9392;SDS011;4736;52.508;13.422;2022-09-02T02:51:44;2.53;;;2.43;;
9392;SDS011;4736;52.508;13.422;2022-09-02T02:54:48;2.33;;;2.33;;
9392;SDS011;4736;52.508;13.422;2022-09-02T02:57:51;2.50;;;2.40;;
9392;SDS011;4736;52.508;13.422;2022-09-02T03:00:54;2.23;;;2.23;;
9392;SDS011;4736;52.508;13.422;2022-09-02T03:03:58;2.40;;;2.40;;
9392;SDS011;4736;52.508;13.422;2022-09-02T03:07:01;2.30;;;2.30;;
9392;SDS011;4736;52.508;13.422;2022-09-02T03:10:07;2.90;;;2.80;;
9392;SDS011;4736;52.508;13.422;2022-09-02T03:13:13;2.80;;;2.67;;
9392;SDS011;4736;52.508;13.422;2022-09-02T03:16:16;2.20;;;2.17;;
9392;SDS011;4736;52.508;13.422;2022-09-02T03:19:20;2.83;;;2.80;;
9392;SDS011;4736;52.508;13.422;2022-09-02T03:22:23;2.80;;;2.60;;
9392;SDS011;4736;52.508;13.422;2022-09-02T03:25:28;2.60;;;2.40;;
9392;SDS011;4736;52.508;13.422;2022-09-02T03:28:36;3.60;;;2.50;;
9392;SDS011;4736;52.508;13.422;2022-09-02T03:31:39;2.67;;;2.47;;
9392;SDS011;4736;52.508;13.422;2022-09-02T03:34:41;2.60;;;2.50;;
9392;SDS011;4736;52.508;13.422;2022-09-02T03:37:45;2.80;;;2.60;;
9392;SDS011;4736;52.508;13.422;2022-09-02T03:40:50;2.80;;;2.70;;
9392;SDS011;4736;52.508;13.422;2022-09-02T03:43:53;2.80;;;2.73;;
9392;SDS011;4736;52.508;13.422;2022-09-02T03:46:57;2.87;;;2.77;;
9392;SDS011;4736;52.508;13.422;2022-09-02T03:50:01;3.00;;;2.80;;
9392;SDS011;4736;52.508;13.422;2022-09-02T03:53:04;2.80;;;2.70;;
9392;SDS011;4736;52.508;13.422;2022-09-02T03:56:10;2.60;;;2.53;;
9392;SDS011;4736;52.508;13.422;2022-09-02T03:59:15;2.90;;;2.80;;
9392;SDS011;4736;52.508;13.422;2022-09-02T04:02:18;3.07;;;2.97;;
9392;SDS011;4736;52.508;13.422;2022-09-02T04:05:21;3.13;;;2.90;;
9392;SDS011;4736;52.508;13.422;2022-09-02T04:08:25;3.03;;;2.93;;
9392;SDS011;4736;52.508;13.422;2022-09-02T04:11:30;3.00;;;2.90;;
9392;SDS011;4736;52.508;13.422;2022-09-02T04:14:33;2.97;;;2.80;;
9392;SDS011;4736;52.508;13.422;2022-09-02T04:17:36;3.27;;;3.00;;
9392;SDS011;4736;52.508;13.422;2022-09-02T04:20:41;2.83;;;2.73;;
9392;SDS011;4736;52.508;13.422;2022-09-02T04:23:50;2.60;;;2.60;;
9392;SDS011;4736;52.508;13.422;2022-09-02T04:26:54;2.80;;;2.70;;
9392;SDS011;4736;52.508;13.422;2022-09-02T04:30:05;2.57;;;2.47;;
9392;SDS011;4736;52.508;13.422;2022-09-02T04:33:09;3.50;;;3.13;;
9392;SDS011;4736;52.508;13.422;2022-09-02T04:36:13;3.00;;;3.00;;
9392;SDS011;4736;52.508;13.422;2022-09-02T04:39:17;3.23;;;3.07;;
9392;SDS011;4736;52.508;13.422;2022-09-02T04:42:22;3.10;;;3.00;;
9392;SDS011;4736;52.508;13.422;2022-09-02T04:45:26;3.03;;;2.93;;
9392;SDS011;4736;52.508;13.422;2022-09-02T04:48:30;3.17;;;2.97;;
9392;SDS011;4736;52.508;13.422;2022-09-02T04:51:39;2.90;;;2.80;;
9392;SDS011;4736;52.508;13.422;2022-09-02T04:54:42;3.20;;;3.00;;
9392;SDS011;4736;52.508;13.422;2022-09-02T04:57:50;3.23;;;3.03;;
9392;SDS011;4736;52.508;13.422;2022-09-02T05:00:53;3.07;;;2.87;;
9392;SDS011;4736;52.508;13.422;2022-09-02T05:03:56;3.20;;;3.03;;
9392;SDS011;4736;52.508;13.422;2022-09-02T05:07:00;5.20;;;3.03;;
9392;SDS011;4736;52.508;13.422;2022-09-02T05:10:03;3.07;;;2.80;;
9392;SDS011;4736;52.508;13.422;2022-09-02T05:13:08;2.90;;;2.80;;
9392;SDS011;4736;52.508;13.422;2022-09-02T05:16:13;3.10;;;3.00;;
9392;SDS011;4736;52.508;13.422;2022-09-02T05:19:17;4.73;;;3.10;;
9392;SDS011;4736;52.508;13.422;2022-09-02T05:22:19;5.83;;;3.30;;
9392;SDS011;4736;52.508;13.422;2022-09-02T05:25:22;3.60;;;3.30;;
9392;SDS011;4736;52.508;13.422;2022-09-02T05:28:26;3.13;;;2.73;;
9392;SDS011;4736;52.508;13.422;2022-09-02T05:31:29;4.87;;;3.47;;
9392;SDS011;4736;52.508;13.422;2022-09-02T05:34:32;3.27;;;3.17;;
9392;SDS011;4736;52.508;13.422;2022-09-02T05:37:35;3.10;;;3.10;;
9392;SDS011;4736;52.508;13.422;2022-09-02T05:40:38;3.17;;;3.03;;
9392;SDS011;4736;52.508;13.422;2022-09-02T05:43:43;2.90;;;2.80;;
9392;SDS011;4736;52.508;13.422;2022-09-02T05:46:48;3.83;;;3.17;;
9392;SDS011;4736;52.508;13.422;2022-09-02T05:49:52;2.77;;;2.67;;
9392;SDS011;4736;52.508;13.422;2022-09-02T05:52:55;3.10;;;2.90;;
9392;SDS011;4736;52.508;13.422;2022-09-02T05:55:58;3.27;;;3.07;;
9392;SDS011;4736;52.508;13.422;2022-09-02T05:59:06;3.10;;;2.73;;
9392;SDS011;4736;52.508;13.422;2022-09-02T06:02:11;2.77;;;2.67;;
9392;SDS011;4736;52.508;13.422;2022-09-02T06:05:15;3.63;;;3.27;;
9392;SDS011;4736;52.508;13.422;2022-09-02T06:08:19;3.30;;;3.20;;
9392;SDS011;4736;52.508;13.422;2022-09-02T06:11:22;6.53;;;3.03;;
9392;SDS011;4736;52.508;13.422;2022-09-02T06:14:27;3.30;;;3.00;;
9392;SDS011;4736;52.508;13.422;2022-09-02T06:17:30;3.27;;;3.07;;
9392;SDS011;4736;52.508;13.422;2022-09-02T06:20:33;3.50;;;3.30;;
9392;SDS011;4736;52.508;13.422;2022-09-02T06:23:40;5.90;;;3.80;;
9392;SDS011;4736;52.508;13.422;2022-09-02T06:26:49;5.90;;;3.63;;
9392;SDS011;4736;52.508;13.422;2022-09-02T06:29:57;3.30;;;3.10;;
9392;SDS011;4736;52.508;13.422;2022-09-02T06:33:00;3.73;;;3.53;;
9392;SDS011;4736;52.508;13.422;2022-09-02T06:36:04;4.07;;;3.43;;
9392;SDS011;4736;52.508;13.422;2022-09-02T06:39:09;3.50;;;3.30;;
9392;SDS011;4736;52.508;13.422;2022-09-02T06:42:14;3.70;;;3.40;;
9392;SDS011;4736;52.508;13.422;2022-09-02T06:45:18;6.10;;;3.50;;
9392;SDS011;4736;52.508;13.422;2022-09-02T06:48:24;3.73;;;3.40;;
9392;SDS011;4736;52.508;13.422;2022-09-02T06:51:27;3.90;;;3.60;;
9392;SDS011;4736;52.508;13.422;2022-09-02T06:54:32;3.50;;;3.40;;
9392;SDS011;4736;52.508;13.422;2022-09-02T06:57:35;3.43;;;3.27;;
9392;SDS011;4736;52.508;13.422;2022-09-02T07:00:40;3.67;;;3.37;;
9392;SDS011;4736;52.508;13.422;2022-09-02T07:03:53;4.97;;;4.43;;
9392;SDS011;4736;52.508;13.422;2022-09-02T07:07:26;3.30;;;3.20;;
9392;SDS011;4736;52.508;13.422;2022-09-02T07:10:30;3.77;;;3.50;;
9392;SDS011;4736;52.508;13.422;2022-09-02T07:13:35;3.93;;;3.50;;
9392;SDS011;4736;52.508;13.422;2022-09-02T07:16:41;4.20;;;3.40;;
9392;SDS011;4736;52.508;13.422;2022-09-02T07:19:45;5.60;;;3.20;;
9392;SDS011;4736;52.508;13.422;2022-09-02T07:22:48;2.80;;;2.70;;
9392;SDS011;4736;52.508;13.422;2022-09-02T07:25:56;4.67;;;2.90;;
9392;SDS011;4736;52.508;13.422;2022-09-02T07:28:59;4.67;;;2.97;;
9392;SDS011;4736;52.508;13.422;2022-09-02T07:32:04;3.40;;;3.10;;
9392;SDS011;4736;52.508;13.422;2022-09-02T07:35:07;2.67;;;2.60;;
9392;SDS011;4736;52.508;13.422;2022-09-02T07:38:10;3.30;;;2.83;;
9392;SDS011;4736;52.508;13.422;2022-09-02T07:41:15;3.77;;;3.00;;
9392;SDS011;4736;52.508;13.422;2022-09-02T07:44:19;5.97;;;3.07;;
9392;SDS011;4736;52.508;13.422;2022-09-02T07:47:24;3.03;;;2.90;;
9392;SDS011;4736;52.508;13.422;2022-09-02T07:50:27;2.90;;;2.70;;
9392;SDS011;4736;52.508;13.422;2022-09-02T07:53:31;3.13;;;2.93;;
9392;SDS011;4736;52.508;13.422;2022-09-02T07:56:35;3.30;;;2.80;;
9392;SDS011;4736;52.508;13.422;2022-09-02T07:59:38;4.13;;;2.93;;
9392;SDS011;4736;52.508;13.422;2022-09-02T08:02:42;3.00;;;2.80;;
9392;SDS011;4736;52.508;13.422;2022-09-02T08:05:45;3.20;;;2.90;;
9392;SDS011;4736;52.508;13.422;2022-09-02T08:08:48;3.33;;;3.20;;
9392;SDS011;4736;52.508;13.422;2022-09-02T08:11:51;2.97;;;2.40;;
9392;SDS011;4736;52.508;13.422;2022-09-02T08:14:55;2.73;;;2.43;;
9392;SDS011;4736;52.508;13.422;2022-09-02T08:18:00;2.33;;;2.30;;
9392;SDS011;4736;52.508;13.422;2022-09-02T08:21:05;3.03;;;2.57;;
9392;SDS011;4736;52.508;13.422;2022-09-02T08:24:08;2.67;;;2.57;;
9392;SDS011;4736;52.508;13.422;2022-09-02T08:27:12;2.30;;;2.30;;
9392;SDS011;4736;52.508;13.422;2022-09-02T08:30:22;6.03;;;2.40;;
9392;SDS011;4736;52.508;13.422;2022-09-02T08:33:27;2.50;;;2.50;;
9392;SDS011;4736;52.508;13.422;2022-09-02T08:36:30;2.53;;;2.40;;
9392;SDS011;4736;52.508;13.422;2022-09-02T08:39:32;2.20;;;2.20;;
9392;SDS011;4736;52.508;13.422;2022-09-02T08:42:37;2.30;;;2.20;;
9392;SDS011;4736;52.508;13.422;2022-09-02T08:45:47;3.93;;;2.40;;
9392;SDS011;4736;52.508;13.422;2022-09-02T08:48:52;2.17;;;2.07;;
9392;SDS011;4736;52.508;13.422;2022-09-02T08:52:00;2.20;;;2.10;;
9392;SDS011;4736;52.508;13.422;2022-09-02T08:55:05;2.43;;;2.20;;
9392;SDS011;4736;52.508;13.422;2022-09-02T08:58:14;2.30;;;2.10;;
9392;SDS011;4736;52.508;13.422;2022-09-02T09:01:22;5.17;;;2.10;;
9392;SDS011;4736;52.508;13.422;2022-09-02T09:04:36;2.87;;;2.20;;
9392;SDS011;4736;52.508;13.422;2022-09-02T09:07:57;2.17;;;2.00;;
9392;SDS011;4736;52.508;13.422;2022-09-02T09:11:14;2.70;;;2.10;;
9392;SDS011;4736;52.508;13.422;2022-09-02T09:14:25;2.10;;;2.10;;
9392;SDS011;4736;52.508;13.422;2022-09-02T09:17:36;1.73;;;1.63;;
9392;SDS011;4736;52.508;13.422;2022-09-02T09:20:46;1.90;;;1.80;;
9392;SDS011;4736;52.508;13.422;2022-09-02T09:23:51;1.50;;;1.50;;
9392;SDS011;4736;52.508;13.422;2022-09-02T09:26:56;1.70;;;1.60;;
9392;SDS011;4736;52.508;13.422;2022-09-02T09:30:00;1.40;;;1.40;;
9392;SDS011;4736;52.508;13.422;2022-09-02T09:33:03;1.40;;;1.40;;
9392;SDS011;4736;52.508;13.422;2022-09-02T09:36:08;1.70;;;1.70;;
9392;SDS011;4736;52.508;13.422;2022-09-02T09:39:17;1.63;;;1.63;;
9392;SDS011;4736;52.508;13.422;2022-09-02T09:42:30;1.80;;;1.70;;
9392;SDS011;4736;52.508;13.422;2022-09-02T09:45:35;2.00;;;1.90;;
9392;SDS011;4736;52.508;13.422;2022-09-02T09:48:42;6.60;;;2.00;;
9392;SDS011;4736;52.508;13.422;2022-09-02T09:51:54;1.70;;;1.60;;
9392;SDS011;4736;52.508;13.422;2022-09-02T09:55:08;1.83;;;1.73;;
9392;SDS011;4736;52.508;13.422;2022-09-02T09:58:14;1.40;;;1.30;;
9392;SDS011;4736;52.508;13.422;2022-09-02T10:01:18;2.50;;;1.83;;
9392;SDS011;4736;52.508;13.422;2022-09-02T10:04:24;2.20;;;1.50;;
9392;SDS011;4736;52.508;13.422;2022-09-02T10:07:52;1.93;;;1.80;;
9392;SDS011;4736;52.508;13.422;2022-09-02T10:10:59;1.70;;;1.60;;
9392;SDS011;4736;52.508;13.422;2022-09-02T10:14:05;3.33;;;1.80;;
9392;SDS011;4736;52.508;13.422;2022-09-02T10:17:15;3.40;;;1.80;;
9392;SDS011;4736;52.508;13.422;2022-09-02T10:20:31;1.83;;;1.83;;
9392;SDS011;4736;52.508;13.422;2022-09-02T10:24:14;1.93;;;1.93;;
9392;SDS011;4736;52.508;13.422;2022-09-02T10:27:40;1.90;;;1.80;;
9392;SDS011;4736;52.508;13.422;2022-09-02T10:30:54;2.07;;;2.00;;
9392;SDS011;4736;52.508;13.422;2022-09-02T10:34:09;2.33;;;2.23;;
9392;SDS011;4736;52.508;13.422;2022-09-02T10:37:18;1.80;;;1.80;;
9392;SDS011;4736;52.508;13.422;2022-09-02T10:40:25;1.80;;;1.80;;
9392;SDS011;4736;52.508;13.422;2022-09-02T10:43:47;2.43;;;1.90;;
9392;SDS011;4736;52.508;13.422;2022-09-02T10:47:01;1.73;;;1.73;;
9392;SDS011;4736;52.508;13.422;2022-09-02T10:50:15;1.70;;;1.70;;
9392;SDS011;4736;52.508;13.422;2022-09-02T10:53:30;2.00;;;1.80;;
9392;SDS011;4736;52.508;13.422;2022-09-02T10:56:40;2.20;;;1.97;;
9392;SDS011;4736;52.508;13.422;2022-09-02T11:00:02;2.77;;;1.80;;
9392;SDS011;4736;52.508;13.422;2022-09-02T11:03:12;4.40;;;2.10;;
9392;SDS011;4736;52.508;13.422;2022-09-02T11:06:24;2.93;;;1.77;;
9392;SDS011;4736;52.508;13.422;2022-09-02T11:09:51;2.00;;;1.90;;
9392;SDS011;4736;52.508;13.422;2022-09-02T11:13:00;1.87;;;1.87;;
9392;SDS011;4736;52.508;13.422;2022-09-02T11:16:06;1.60;;;1.60;;
9392;SDS011;4736;52.508;13.422;2022-09-02T11:19:17;1.60;;;1.60;;
9392;SDS011;4736;52.508;13.422;2022-09-02T11:22:26;1.80;;;1.80;;
9392;SDS011;4736;52.508;13.422;2022-09-02T11:25:37;2.17;;;1.80;;
9392;SDS011;4736;52.508;13.422;2022-09-02T11:28:47;2.43;;;1.77;;
9392;SDS011;4736;52.508;13.422;2022-09-02T11:31:57;3.40;;;2.00;;
9392;SDS011;4736;52.508;13.422;2022-09-02T11:35:06;3.03;;;1.70;;
9392;SDS011;4736;52.508;13.422;2022-09-02T11:38:17;1.80;;;1.70;;
9392;SDS011;4736;52.508;13.422;2022-09-02T11:41:37;2.40;;;1.90;;
9392;SDS011;4736;52.508;13.422;2022-09-02T11:52:09;1.60;;;1.40;;
9392;SDS011;4736;52.508;13.422;2022-09-02T11:55:29;1.60;;;1.60;;
9392;SDS011;4736;52.508;13.422;2022-09-02T11:58:36;1.67;;;1.67;;
9392;SDS011;4736;52.508;13.422;2022-09-02T12:01:46;1.63;;;1.63;;
9392;SDS011;4736;52.508;13.422;2022-09-02T12:04:51;2.23;;;2.13;;
9392;SDS011;4736;52.508;13.422;2022-09-02T12:12:00;2.10;;;2.00;;
9392;SDS011;4736;52.508;13.422;2022-09-02T12:18:26;1.70;;;1.70;;
9392;SDS011;4736;52.508;13.422;2022-09-02T12:21:32;1.97;;;1.97;;
9392;SDS011;4736;52.508;13.422;2022-09-02T12:24:47;2.17;;;2.10;;
9392;SDS011;4736;52.508;13.422;2022-09-02T12:28:07;2.07;;;1.93;;
9392;SDS011;4736;52.508;13.422;2022-09-02T12:31:38;1.53;;;1.53;;
9392;SDS011;4736;52.508;13.422;2022-09-02T12:34:52;1.60;;;1.60;;
9392;SDS011;4736;52.508;13.422;2022-09-02T12:41:34;2.03;;;1.73;;
9392;SDS011;4736;52.508;13.422;2022-09-02T12:44:47;1.70;;;1.60;;
9392;SDS011;4736;52.508;13.422;2022-09-02T12:47:57;2.10;;;2.00;;
9392;SDS011;4736;52.508;13.422;2022-09-02T12:51:04;2.40;;;2.20;;
9392;SDS011;4736;52.508;13.422;2022-09-02T12:54:08;4.67;;;2.00;;
9392;SDS011;4736;52.508;13.422;2022-09-02T12:57:11;1.83;;;1.73;;
9392;SDS011;4736;52.508;13.422;2022-09-02T13:00:18;1.77;;;1.77;;
9392;SDS011;4736;52.508;13.422;2022-09-02T13:03:42;1.97;;;1.97;;
9392;SDS011;4736;52.508;13.422;2022-09-02T13:10:50;1.90;;;1.80;;
9392;SDS011;4736;52.508;13.422;2022-09-02T13:14:08;1.93;;;1.83;;
9392;SDS011;4736;52.508;13.422;2022-09-02T13:17:41;1.83;;;1.80;;
9392;SDS011;4736;52.508;13.422;2022-09-02T13:24:30;1.83;;;1.83;;
9392;SDS011;4736;52.508;13.422;2022-09-02T13:31:29;2.50;;;2.50;;
9392;SDS011;4736;52.508;13.422;2022-09-02T13:34:32;2.20;;;1.80;;
9392;SDS011;4736;52.508;13.422;2022-09-02T13:37:36;1.90;;;1.90;;
9392;SDS011;4736;52.508;13.422;2022-09-02T13:40:42;1.80;;;1.77;;
9392;SDS011;4736;52.508;13.422;2022-09-02T13:43:46;2.17;;;2.07;;
9392;SDS011;4736;52.508;13.422;2022-09-02T13:47:12;2.33;;;2.17;;
9392;SDS011;4736;52.508;13.422;2022-09-02T13:50:18;2.10;;;2.07;;
9392;SDS011;4736;52.508;13.422;2022-09-02T13:53:24;2.13;;;1.87;;
9392;SDS011;4736;52.508;13.422;2022-09-02T13:56:54;2.20;;;2.10;;
9392;SDS011;4736;52.508;13.422;2022-09-02T14:00:00;2.03;;;2.00;;
9392;SDS011;4736;52.508;13.422;2022-09-02T14:03:04;2.17;;;2.07;;
9392;SDS011;4736;52.508;13.422;2022-09-02T14:06:10;2.10;;;2.10;;
9392;SDS011;4736;52.508;13.422;2022-09-02T14:09:17;2.00;;;1.90;;
9392;SDS011;4736;52.508;13.422;2022-09-02T14:12:23;1.80;;;1.73;;
9392;SDS011;4736;52.508;13.422;2022-09-02T14:15:28;1.93;;;1.87;;
9392;SDS011;4736;52.508;13.422;2022-09-02T14:18:33;2.90;;;2.43;;
9392;SDS011;4736;52.508;13.422;2022-09-02T14:21:42;1.70;;;1.70;;
9392;SDS011;4736;52.508;13.422;2022-09-02T14:24:47;1.90;;;1.90;;
9392;SDS011;4736;52.508;13.422;2022-09-02T14:27:53;1.60;;;1.60;;
9392;SDS011;4736;52.508;13.422;2022-09-02T14:31:00;1.83;;;1.80;;
9392;SDS011;4736;52.508;13.422;2022-09-02T14:34:13;1.80;;;1.70;;
9392;SDS011;4736;52.508;13.422;2022-09-02T14:37:47;1.67;;;1.67;;
9392;SDS011;4736;52.508;13.422;2022-09-02T14:40:59;2.00;;;1.90;;
9392;SDS011;4736;52.508;13.422;2022-09-02T14:44:09;3.53;;;1.90;;
9392;SDS011;4736;52.508;13.422;2022-09-02T14:47:16;2.10;;;1.90;;
9392;SDS011;4736;52.508;13.422;2022-09-02T14:50:24;1.77;;;1.77;;
9392;SDS011;4736;52.508;13.422;2022-09-02T14:53:31;2.53;;;1.50;;
9392;SDS011;4736;52.508;13.422;2022-09-02T14:56:46;1.67;;;1.67;;
9392;SDS011;4736;52.508;13.422;2022-09-02T14:59:52;1.97;;;1.87;;
9392;SDS011;4736;52.508;13.422;2022-09-02T15:02:57;1.80;;;1.70;;
9392;SDS011;4736;52.508;13.422;2022-09-02T15:06:03;1.53;;;1.53;;
9392;SDS011;4736;52.508;13.422;2022-09-02T15:09:07;1.63;;;1.60;;
9392;SDS011;4736;52.508;13.422;2022-09-02T15:12:10;1.80;;;1.80;;
9392;SDS011;4736;52.508;13.422;2022-09-02T15:15:21;1.90;;;1.80;;
9392;SDS011;4736;52.508;13.422;2022-09-02T15:18:24;4.40;;;2.10;;
9392;SDS011;4736;52.508;13.422;2022-09-02T15:21:27;2.07;;;1.90;;
9392;SDS011;4736;52.508;13.422;2022-09-02T15:24:30;1.53;;;1.53;;
9392;SDS011;4736;52.508;13.422;2022-09-02T15:27:33;2.03;;;1.93;;
9392;SDS011;4736;52.508;13.422;2022-09-02T15:30:38;3.13;;;1.60;;
9392;SDS011;4736;52.508;13.422;2022-09-02T15:33:41;2.47;;;1.70;;
9392;SDS011;4736;52.508;13.422;2022-09-02T15:36:44;1.70;;;1.70;;
9392;SDS011;4736;52.508;13.422;2022-09-02T15:39:48;1.60;;;1.30;;
9392;SDS011;4736;52.508;13.422;2022-09-02T15:42:51;1.90;;;1.40;;
9392;SDS011;4736;52.508;13.422;2022-09-02T15:45:57;1.40;;;1.40;;
9392;SDS011;4736;52.508;13.422;2022-09-02T15:49:01;2.00;;;1.90;;
9392;SDS011;4736;52.508;13.422;2022-09-02T15:52:06;1.80;;;1.70;;
9392;SDS011;4736;52.508;13.422;2022-09-02T15:55:09;1.50;;;1.50;;
9392;SDS011;4736;52.508;13.422;2022-09-02T15:58:12;1.43;;;1.43;;
9392;SDS011;4736;52.508;13.422;2022-09-02T16:01:18;3.00;;;1.70;;
9392;SDS011;4736;52.508;13.422;2022-09-02T16:04:25;3.90;;;1.90;;
9392;SDS011;4736;52.508;13.422;2022-09-02T16:07:32;1.33;;;1.33;;
9392;SDS011;4736;52.508;13.422;2022-09-02T16:10:35;1.77;;;1.67;;
9392;SDS011;4736;52.508;13.422;2022-09-02T16:13:40;1.60;;;1.60;;
9392;SDS011;4736;52.508;13.422;2022-09-02T16:16:46;3.13;;;1.60;;
9392;SDS011;4736;52.508;13.422;2022-09-02T16:19:51;1.80;;;1.50;;
9392;SDS011;4736;52.508;13.422;2022-09-02T16:22:54;1.93;;;1.77;;
9392;SDS011;4736;52.508;13.422;2022-09-02T16:26:07;2.00;;;1.60;;
9392;SDS011;4736;52.508;13.422;2022-09-02T16:29:12;1.83;;;1.73;;
9392;SDS011;4736;52.508;13.422;2022-09-02T16:32:17;1.57;;;1.57;;
9392;SDS011;4736;52.508;13.422;2022-09-02T16:35:28;1.70;;;1.70;;
9392;SDS011;4736;52.508;13.422;2022-09-02T16:38:31;1.83;;;1.73;;
9392;SDS011;4736;52.508;13.422;2022-09-02T16:41:35;2.13;;;2.00;;
9392;SDS011;4736;52.508;13.422;2022-09-02T16:44:39;2.30;;;2.20;;
9392;SDS011;4736;52.508;13.422;2022-09-02T16:47:43;1.70;;;1.70;;
9392;SDS011;4736;52.508;13.422;2022-09-02T16:50:46;1.93;;;1.93;;
9392;SDS011;4736;52.508;13.422;2022-09-02T16:53:51;1.77;;;1.67;;
9392;SDS011;4736;52.508;13.422;2022-09-02T16:56:56;2.70;;;2.60;;
9392;SDS011;4736;52.508;13.422;2022-09-02T17:00:00;2.40;;;2.40;;
9392;SDS011;4736;52.508;13.422;2022-09-02T17:03:05;2.00;;;2.00;;
9392;SDS011;4736;52.508;13.422;2022-09-02T17:06:09;1.90;;;1.90;;
9392;SDS011;4736;52.508;13.422;2022-09-02T17:09:12;2.00;;;2.00;;
9392;SDS011;4736;52.508;13.422;2022-09-02T17:12:16;1.93;;;1.93;;
9392;SDS011;4736;52.508;13.422;2022-09-02T17:15:19;1.93;;;1.83;;
9392;SDS011;4736;52.508;13.422;2022-09-02T17:18:23;2.20;;;1.70;;
9392;SDS011;4736;52.508;13.422;2022-09-02T17:21:26;1.60;;;1.60;;
9392;SDS011;4736;52.508;13.422;2022-09-02T17:24:34;2.00;;;2.00;;
9392;SDS011;4736;52.508;13.422;2022-09-02T17:27:39;1.90;;;1.87;;
9392;SDS011;4736;52.508;13.422;2022-09-02T17:30:43;2.30;;;1.90;;
9392;SDS011;4736;52.508;13.422;2022-09-02T17:33:48;1.53;;;1.53;;
9392;SDS011;4736;52.508;13.422;2022-09-02T17:36:52;1.60;;;1.60;;
9392;SDS011;4736;52.508;13.422;2022-09-02T17:39:54;1.60;;;1.60;;
9392;SDS011;4736;52.508;13.422;2022-09-02T17:42:57;1.80;;;1.80;;
9392;SDS011;4736;52.508;13.422;2022-09-02T17:46:03;3.27;;;1.90;;
9392;SDS011;4736;52.508;13.422;2022-09-02T17:49:09;1.70;;;1.70;;
9392;SDS011;4736;52.508;13.422;2022-09-02T17:52:18;2.07;;;2.00;;
9392;SDS011;4736;52.508;13.422;2022-09-02T17:55:22;2.13;;;1.90;;
9392;SDS011;4736;52.508;13.422;2022-09-02T17:58:25;2.00;;;1.90;;
9392;SDS011;4736;52.508;13.422;2022-09-02T18:01:33;2.13;;;2.03;;
9392;SDS011;4736;52.508;13.422;2022-09-02T18:04:47;1.90;;;1.90;;
9392;SDS011;4736;52.508;13.422;2022-09-02T18:07:55;2.00;;;1.90;;
9392;SDS011;4736;52.508;13.422;2022-09-02T18:11:03;2.07;;;1.97;;
9392;SDS011;4736;52.508;13.422;2022-09-02T18:14:12;1.90;;;1.90;;
9392;SDS011;4736;52.508;13.422;2022-09-02T18:17:25;2.63;;;2.10;;
9392;SDS011;4736;52.508;13.422;2022-09-02T18:20:38;2.00;;;1.90;;
9392;SDS011;4736;52.508;13.422;2022-09-02T18:23:49;2.03;;;2.00;;
9392;SDS011;4736;52.508;13.422;2022-09-02T18:27:02;2.10;;;2.07;;
9392;SDS011;4736;52.508;13.422;2022-09-02T18:30:12;2.10;;;2.10;;
9392;SDS011;4736;52.508;13.422;2022-09-02T18:33:26;4.57;;;1.90;;
9392;SDS011;4736;52.508;13.422;2022-09-02T18:36:50;2.53;;;2.43;;
9392;SDS011;4736;52.508;13.422;2022-09-02T18:40:02;4.73;;;2.50;;
9392;SDS011;4736;52.508;13.422;2022-09-02T18:43:21;2.30;;;2.20;;
9392;SDS011;4736;52.508;13.422;2022-09-02T18:46:31;2.20;;;2.20;;
9392;SDS011;4736;52.508;13.422;2022-09-02T18:49:40;3.03;;;2.60;;
9392;SDS011;4736;52.508;13.422;2022-09-02T18:52:46;2.67;;;2.57;;
9392;SDS011;4736;52.508;13.422;2022-09-02T18:55:50;2.70;;;2.50;;
9392;SDS011;4736;52.508;13.422;2022-09-02T18:58:55;4.53;;;2.30;;
9392;SDS011;4736;52.508;13.422;2022-09-02T19:02:04;2.50;;;2.20;;
9392;SDS011;4736;52.508;13.422;2022-09-02T19:05:17;2.20;;;2.20;;
9392;SDS011;4736;52.508;13.422;2022-09-02T19:08:23;2.23;;;2.00;;
9392;SDS011;4736;52.508;13.422;2022-09-02T19:11:33;2.47;;;2.33;;
9392;SDS011;4736;52.508;13.422;2022-09-02T19:14:38;2.50;;;2.13;;
9392;SDS011;4736;52.508;13.422;2022-09-02T19:17:41;2.30;;;2.30;;
9392;SDS011;4736;52.508;13.422;2022-09-02T19:20:44;2.53;;;2.33;;
9392;SDS011;4736;52.508;13.422;2022-09-02T19:23:51;4.20;;;2.70;;
9392;SDS011;4736;52.508;13.422;2022-09-02T19:26:56;3.17;;;2.47;;
9392;SDS011;4736;52.508;13.422;2022-09-02T19:30:04;4.67;;;2.57;;
9392;SDS011;4736;52.508;13.422;2022-09-02T19:33:09;2.80;;;2.60;;